Time;durP1;ratioP1;P1;durP2;ratioP2;P2;SDS_P1;SDS_P2;PMS_P1;PMS_P2;Temp;Humidity;BMP_temperature;BMP_pressure;BME280_temperature;BME280_humidity;BME280_pressure;Samples;Min_cycle;Max_cycle;Signal;HPM_P1;HPM_P2
2023/01/21 00:01:47;;;;;;;63.10;36.75;;;;;;;-1.79;100.00;66583.03;5015058;28;20038;-86
2023/01/21 00:04:13;;;;;;;62.63;36.33;;;;;;;-1.87;100.00;66575.16;5038187;28;20505;-87
2023/01/21 00:06:38;;;;;;;62.10;36.28;;;;;;;-1.87;100.00;66574.59;5015341;28;20045;-87
2023/01/21 00:09:04;;;;;;;65.78;32.50;;;;;;;-1.84;100.00;66580.59;5027118;28;20703;-86
2023/01/21 00:11:29;;;;;;;64.20;36.03;;;;;;;-1.91;100.00;66570.13;5048995;28;20045;-86
2023/01/21 00:13:55;;;;;;;63.83;35.28;;;;;;;;;;5061183;28;20064;-85
2023/01/21 00:16:20;;;;;;;66.07;38.05;;;;;;;-1.96;100.00;66564.50;5046511;28;20049;-86
2023/01/21 00:18:48;;;;;;;66.55;38.30;;;;;;;-1.96;100.00;66564.50;5060411;28;20143;-86
2023/01/21 00:21:14;;;;;;;69.30;38.55;;;;;;;-1.97;100.00;66563.38;5065716;28;20037;-84
2023/01/21 00:23:39;;;;;;;72.50;38.38;;;;;;;-2.00;100.00;66565.22;5067806;28;20554;-85
2023/01/21 00:26:06;;;;;;;69.95;38.65;;;;;;;-1.98;100.00;66564.88;5040152;28;20037;-85
2023/01/21 00:28:34;;;;;;;69.35;39.35;;;;;;;-1.95;100.00;66570.84;5047716;28;20036;-84
2023/01/21 00:31:02;;;;;;;68.20;38.43;;;;;;;-1.96;100.00;66567.09;5065480;28;20198;-84
2023/01/21 00:33:28;;;;;;;64.82;35.67;;;;;;;-2.00;100.00;66560.00;5052702;28;20033;-84
2023/01/21 00:35:57;;;;;;;67.00;38.95;;;;;;;-2.04;100.00;66556.09;5039793;28;20042;-84
2023/01/21 00:38:22;;;;;;;65.85;34.28;;;;;;;-2.00;100.00;66567.84;5056041;28;20098;-84
2023/01/21 00:40:47;;;;;;;71.38;40.47;;;;;;;-2.02;100.00;66558.31;5050184;28;20459;-84
2023/01/21 00:43:13;;;;;;;70.07;39.28;;;;;;;-2.01;100.00;66561.50;5042086;28;20032;-85
2023/01/21 00:45:38;;;;;;;69.78;37.65;;;;;;;-2.02;100.00;66557.75;5044265;28;20041;-85
2023/01/21 00:48:04;;;;;;;70.78;40.20;;;;;;;-2.00;100.00;66560.00;5056907;28;20091;-82
2023/01/21 00:50:29;;;;;;;69.95;39.78;;;;;;;-2.01;100.00;66558.88;5038466;28;20044;-83
2023/01/21 00:52:54;;;;;;;72.40;37.03;;;;;;;-2.01;100.00;66559.47;5034379;28;20060;-84
2023/01/21 00:55:20;;;;;;;74.03;38.67;;;;;;;-2.06;100.00;66557.00;5028368;28;20056;-84
2023/01/21 00:57:45;;;;;;;71.55;39.40;;;;;;;-2.07;100.00;66555.91;5028896;28;20029;-83
2023/01/21 01:00:11;;;;;;;79.60;43.63;;;;;;;-2.10;100.00;66552.53;5028483;28;20052;-82
2023/01/21 01:02:37;;;;;;;71.07;35.85;;;;;;;;;;5049291;28;20037;-82
2023/01/21 01:05:04;;;;;;;73.40;39.13;;;;;;;-2.13;100.00;66546.56;5026101;28;20041;-81
2023/01/21 01:07:29;;;;;;;74.93;41.55;;;;;;;;;;5033293;28;20048;-82
2023/01/21 01:09:55;;;;;;;76.65;42.63;;;;;;;-2.12;100.00;66549.72;5045650;28;20389;-82
2023/01/21 01:12:20;;;;;;;78.20;41.92;;;;;;;;;;5036665;28;20136;-82
2023/01/21 01:14:46;;;;;;;82.65;44.45;;;;;;;-2.17;100.00;66547.28;5046587;28;20048;-82
2023/01/21 01:17:11;;;;;;;78.53;42.17;;;;;;;-2.14;100.00;66550.06;5047342;28;20133;-82
2023/01/21 01:19:36;;;;;;;78.03;43.47;;;;;;;-2.17;100.00;66544.09;5034228;28;20038;-82
2023/01/21 01:22:02;;;;;;;78.18;42.97;;;;;;;-2.17;100.00;66541.50;5032307;28;20524;-81
2023/01/21 01:24:27;;;;;;;80.15;43.67;;;;;;;-2.20;100.00;66538.69;5033938;28;20045;-81
2023/01/21 01:26:53;;;;;;;78.93;43.92;;;;;;;-2.25;100.00;66535.69;5050180;28;20845;-82
2023/01/21 01:29:18;;;;;;;76.97;42.88;;;;;;;-2.25;100.00;66533.06;5035204;28;20051;-82
2023/01/21 01:31:43;;;;;;;79.78;42.78;;;;;;;-2.33;100.00;66527.28;5027283;28;20034;-81
2023/01/21 01:34:09;;;;;;;80.25;42.33;;;;;;;-2.29;100.00;66528.59;5035978;28;20041;-82
2023/01/21 01:36:34;;;;;;;81.75;41.08;;;;;;;-2.28;100.00;66532.88;5028355;28;20038;-81
2023/01/21 01:39:00;;;;;;;84.40;44.95;;;;;;;-2.27;100.00;66530.84;5017034;28;20112;-82
2023/01/21 01:41:28;;;;;;;85.18;44.33;;;;;;;-2.22;100.00;66541.66;5022900;28;20041;-81
2023/01/21 01:43:59;;;;;;;82.22;43.53;;;;;;;-2.27;100.00;66533.44;5019323;28;20042;-81
2023/01/21 01:46:30;;;;;;;80.32;42.78;;;;;;;-2.31;100.00;66531.56;5029538;28;20124;-82
2023/01/21 01:49:19;;;;;;;86.30;47.28;;;;;;;-2.32;100.00;66528.41;5020274;28;20045;-82
2023/01/21 01:51:54;;;;;;;87.78;43.25;;;;;;;-2.34;100.00;66528.75;5021603;28;20127;-81
2023/01/21 01:54:32;;;;;;;89.00;45.60;;;;;;;-2.39;100.00;66520.53;5024347;28;20044;-82
2023/01/21 01:57:01;;;;;;;89.43;46.17;;;;;;;-2.37;100.00;66520.19;5023641;28;20084;-82
2023/01/21 01:59:29;;;;;;;88.43;45.80;;;;;;;-2.34;100.00;66522.97;5025360;28;20543;-81
2023/01/21 02:01:57;;;;;;;86.85;45.63;;;;;;;-2.39;100.00;66519.97;5032405;28;20033;-81
2023/01/21 02:04:27;;;;;;;84.60;45.65;;;;;;;-2.36;100.00;66523.34;5024723;28;20510;-81
2023/01/21 02:06:55;;;;;;;85.53;43.70;;;;;;;-2.38;100.00;66521.66;5026884;28;20099;-81
2023/01/21 02:09:22;;;;;;;85.60;44.00;;;;;;;-2.36;100.00;66521.31;5023750;28;20052;-82
2023/01/21 02:11:48;;;;;;;85.57;43.38;;;;;;;-2.37;100.00;66522.78;5025219;28;20121;-81
2023/01/21 02:14:13;;;;;;;91.00;47.08;;;;;;;-2.39;100.00;66522.59;5025069;28;20125;-82
2023/01/21 02:17:05;;;;;;;89.70;48.33;;;;;;;-2.40;100.00;66521.47;5020885;28;20497;-80
2023/01/21 02:19:53;;;;;;;92.53;48.15;;;;;;;-2.39;100.00;66520.53;5026487;28;20096;-82
2023/01/21 02:22:27;;;;;;;92.07;45.95;;;;;;;-2.42;100.00;66517.16;5016184;28;20061;-81
2023/01/21 02:25:11;;;;;;;93.75;44.67;;;;;;;-2.43;100.00;66513.44;5043033;28;20041;-81
2023/01/21 02:27:46;;;;;;;90.32;48.65;;;;;;;-2.46;100.00;66515.28;5044657;28;20037;-81
2023/01/21 02:30:17;;;;;;;96.28;49.45;;;;;;;-2.42;100.00;66514.00;5047089;28;20052;-82
2023/01/21 02:33:12;;;;;;;94.03;44.97;;;;;;;-2.44;100.00;66514.94;5040635;28;20045;-81
2023/01/21 02:36:01;;;;;;;98.72;49.55;;;;;;;;;;5050257;28;20029;-81
2023/01/21 02:38:45;;;;;;;;;;;;;;;-2.49;100.00;66509.31;5047421;28;20072;-81
2023/01/21 02:41:29;;;;;;;95.20;50.08;;;;;;;-2.57;100.00;66503.50;5047395;28;19920;-80
2023/01/21 02:44:10;;;;;;;96.93;49.25;;;;;;;-2.51;100.00;66507.63;5047140;28;20403;-81
2023/01/21 02:46:47;;;;;;;89.88;46.65;;;;;;;-2.52;100.00;66509.13;5055196;28;20045;-82
2023/01/21 02:49:43;;;;;;;96.03;48.38;;;;;;;-2.53;100.00;66504.84;5045634;28;20052;-82
2023/01/21 02:52:19;;;;;;;102.97;50.20;;;;;;;-2.52;100.00;66503.34;5038308;28;20570;-82
2023/01/21 02:54:51;;;;;;;99.43;45.35;;;;;;;-2.51;100.00;66507.63;5047442;28;20067;-82
2023/01/21 02:57:41;;;;;;;105.82;51.22;;;;;;;-2.56;100.00;66504.06;5046706;28;20112;-82
2023/01/21 03:00:23;;;;;;;108.82;51.83;;;;;;;-2.52;100.00;66503.34;5140418;22;20045;-87
2023/01/21 03:03:00;;;;;;;97.60;45.58;;;;;;;-2.52;100.00;66503.34;5045112;28;20099;-87
2023/01/21 03:05:44;;;;;;;83.63;38.47;;;;;;;-2.54;100.00;66509.47;5062214;28;20044;-86
2023/01/21 03:08:21;;;;;;;100.50;46.75;;;;;;;-2.55;100.00;66503.16;4946256;28;20074;-86
2023/01/21 03:10:58;;;;;;;95.63;42.45;;;;;;;-2.59;100.00;66498.69;4944274;28;20206;-86
2023/01/21 03:16:57;;;;;;;106.68;48.45;;;;;;;-2.61;100.00;66493.81;4941882;28;20074;-85
2023/01/21 03:19:38;;;;;;;100.53;46.63;;;;;;;-2.62;100.00;66495.31;4924020;29;20149;-87
2023/01/21 03:22:10;;;;;;;102.68;45.20;;;;;;;-2.66;100.00;66490.25;4944948;28;20326;-86
2023/01/21 03:24:39;;;;;;;104.55;47.20;;;;;;;-2.65;100.00;66493.97;4945497;28;20055;-86
2023/01/21 03:27:04;;;;;;;;;;;;;;;;;;4945702;28;20046;-86
2023/01/21 03:29:31;;;;;;;105.93;48.05;;;;;;;-2.84;100.00;66470.63;4946942;28;19985;-85
2023/01/21 03:32:02;;;;;;;104.93;48.72;;;;;;;-2.85;100.00;66472.09;4933318;28;20283;-86
2023/01/21 03:34:31;;;;;;;109.80;54.95;;;;;;;-2.97;100.00;66454.56;4983181;28;20134;-86
2023/01/21 03:37:03;;;;;;;112.32;54.20;;;;;;;-3.07;100.00;66437.59;4962316;28;20204;-86
2023/01/21 03:39:34;;;;;;;121.22;55.88;;;;;;;-3.00;100.00;66453.81;4992754;28;20068;-86
2023/01/21 03:42:01;;;;;;;112.05;54.47;;;;;;;-2.95;100.00;66462.00;5032632;28;20054;-87
2023/01/21 03:44:26;;;;;;;111.65;53.33;;;;;;;-2.98;100.00;66456.06;5021992;28;20038;-86
2023/01/21 03:47:05;;;;;;;113.72;52.72;;;;;;;-2.88;100.00;66466.13;5038274;28;20136;-86
2023/01/21 03:49:33;;;;;;;111.75;50.97;;;;;;;;;;5026705;28;20536;-85
2023/01/21 03:52:01;;;;;;;113.60;54.10;;;;;;;-2.92;100.00;66459.63;5034113;28;20139;-85
2023/01/21 03:54:32;;;;;;;119.07;54.77;;;;;;;-2.89;100.00;66470.22;5046040;28;20044;-87
2023/01/21 03:56:58;;;;;;;113.60;52.72;;;;;;;-2.89;100.00;66465.59;5023777;28;22118;-86
2023/01/21 03:59:23;;;;;;;109.65;49.05;;;;;;;-2.84;100.00;66471.19;5027801;28;20049;-86
2023/01/21 04:01:48;;;;;;;114.85;52.03;;;;;;;-2.85;100.00;66469.50;5008851;28;20077;-86
2023/01/21 04:04:14;;;;;;;113.03;47.95;;;;;;;-2.86;100.00;66460.56;5024602;28;20399;-87
2023/01/21 04:06:40;;;;;;;100.32;42.88;;;;;;;-2.89;100.00;66462.41;5024388;28;20377;-85
2023/01/21 04:09:06;;;;;;;112.35;47.63;;;;;;;-2.91;100.00;66463.34;5026359;28;20585;-86
2023/01/21 04:11:32;;;;;;;110.80;47.85;;;;;;;-2.94;100.00;66457.38;5024167;28;20049;-86
2023/01/21 04:13:58;;;;;;;121.32;49.40;;;;;;;-2.92;100.00;66462.22;5024518;28;20080;-86
2023/01/21 04:16:23;;;;;;;113.22;45.80;;;;;;;-2.97;100.00;66457.16;5024712;28;20099;-86
2023/01/21 04:18:49;;;;;;;114.93;53.72;;;;;;;-3.01;100.00;66450.09;5024401;28;20072;-86
2023/01/21 04:21:14;;;;;;;116.78;54.38;;;;;;;-3.03;100.00;66447.84;5058186;28;20103;-86
2023/01/21 04:23:40;;;;;;;121.32;53.15;;;;;;;-2.99;100.00;66457.53;4995537;28;20037;-86
2023/01/21 04:26:06;;;;;;;125.28;57.00;;;;;;;-2.98;100.00;66456.06;5003606;28;20480;-86
2023/01/21 04:28:32;;;;;;;128.45;55.47;;;;;;;-2.95;100.00;66461.47;5009313;28;20131;-86
2023/01/21 04:30:57;;;;;;;126.93;56.35;;;;;;;-2.98;100.00;66453.44;4985078;28;20050;-88
2023/01/21 04:33:22;;;;;;;117.93;53.95;;;;;;;-3.04;100.00;66446.72;5009454;28;20437;-87
2023/01/21 04:35:48;;;;;;;125.55;55.58;;;;;;;-3.04;100.00;66451.38;4994142;28;20052;-86
2023/01/21 04:38:14;;;;;;;127.00;57.67;;;;;;;-2.97;100.00;66459.78;5012926;28;20046;-86
2023/01/21 04:40:40;;;;;;;134.25;61.28;;;;;;;-2.96;100.00;66457.75;5000986;28;20325;-86
2023/01/21 04:43:06;;;;;;;123.15;56.72;;;;;;;-2.98;100.00;66456.06;5000155;28;20043;-87
2023/01/21 04:45:31;;;;;;;123.32;55.42;;;;;;;-2.93;100.00;66460.53;5000044;28;20041;-86
2023/01/21 04:47:57;;;;;;;126.30;57.88;;;;;;;-2.93;100.00;66466.31;4987972;28;20501;-86
2023/01/21 04:50:22;;;;;;;126.15;54.45;;;;;;;-2.91;100.00;66465.38;5003932;28;20208;-86
2023/01/21 04:52:47;;;;;;;128.73;58.60;;;;;;;-2.96;100.00;66463.50;5003118;28;20054;-86
2023/01/21 04:55:13;;;;;;;130.77;57.55;;;;;;;-2.96;100.00;66455.69;5005604;28;20079;-87
2023/01/21 04:57:38;;;;;;;133.63;59.88;;;;;;;-3.00;100.00;66453.81;5022297;28;20049;-87
2023/01/21 05:00:05;;;;;;;125.13;55.15;;;;;;;-3.03;100.00;66452.50;5027841;28;20041;-87
2023/01/21 05:02:31;;;;;;;131.25;60.00;;;;;;;-3.03;100.00;66447.84;5034562;28;20099;-86
2023/01/21 05:04:57;;;;;;;131.95;56.80;;;;;;;-3.02;100.00;66451.00;5039883;28;20032;-87
2023/01/21 05:07:22;;;;;;;126.07;57.92;;;;;;;;;;5047324;28;20049;-86
2023/01/21 05:09:47;;;;;;;128.27;57.70;;;;;;;-3.02;100.00;66451.56;5027410;28;20100;-86
2023/01/21 05:12:13;;;;;;;121.90;53.38;;;;;;;-2.99;100.00;66454.38;5024473;28;20698;-86
2023/01/21 05:14:38;;;;;;;127.13;54.70;;;;;;;-3.01;100.00;66452.13;5027726;28;20512;-86
2023/01/21 05:17:03;;;;;;;135.45;60.22;;;;;;;-3.01;100.00;66452.69;5023789;28;20046;-87
2023/01/21 05:19:29;;;;;;;133.95;61.05;;;;;;;-2.98;100.00;66458.66;5035226;28;20100;-86
2023/01/21 05:21:54;;;;;;;142.63;61.25;;;;;;;-2.90;100.00;66461.31;5035844;28;20392;-86
2023/01/21 05:24:19;;;;;;;141.60;59.15;;;;;;;-2.85;100.00;66469.50;5025353;28;20094;-87
2023/01/21 05:26:45;;;;;;;137.82;61.80;;;;;;;-2.83;100.00;66472.31;5034812;28;20122;-85
2023/01/21 05:29:11;;;;;;;139.10;62.72;;;;;;;-2.79;100.00;66476.81;5042025;28;20060;-87
2023/01/21 05:31:36;;;;;;;146.35;59.92;;;;;;;-2.70;100.00;66483.72;5024901;28;20049;-86
2023/01/21 05:34:02;;;;;;;147.73;62.33;;;;;;;-2.64;100.00;66493.06;5025525;28;20068;-86
2023/01/21 05:36:28;;;;;;;147.63;60.38;;;;;;;-2.59;100.00;66498.09;5027397;28;20049;-86
2023/01/21 05:38:54;;;;;;;160.82;64.95;;;;;;;-2.56;100.00;66502.03;5026485;28;20045;-86
2023/01/21 05:41:19;;;;;;;155.48;65.20;;;;;;;-2.54;100.00;66503.72;5028410;28;20040;-86
2023/01/21 05:43:44;;;;;;;139.20;57.40;;;;;;;-2.46;100.00;66509.53;5024516;28;20053;-86
2023/01/21 05:46:09;;;;;;;158.90;62.50;;;;;;;;;;5026299;28;20586;-86
2023/01/21 05:48:35;;;;;;;150.93;60.03;;;;;;;;;;5027264;28;20045;-86
2023/01/21 05:51:00;;;;;;;147.95;58.80;;;;;;;-2.34;100.00;66522.97;5020985;28;20053;-86
2023/01/21 05:53:26;;;;;;;158.82;59.55;;;;;;;-2.27;100.00;66536.06;5026664;28;20041;-86
2023/01/21 05:55:55;;;;;;;146.13;60.55;;;;;;;-2.27;100.00;66534.00;5024032;28;20490;-84
2023/01/21 05:58:22;;;;;;;147.70;54.35;;;;;;;-2.21;100.00;66545.41;5020164;28;20057;-85
2023/01/21 06:00:48;;;;;;;155.55;62.13;;;;;;;;;;5022317;28;20412;-86
2023/01/21 06:03:15;;;;;;;147.93;56.97;;;;;;;-2.11;100.00;66548.78;5025502;28;20041;-88
2023/01/21 06:05:40;;;;;;;138.95;55.30;;;;;;;-2.09;100.00;66553.63;5021396;28;20092;-86
2023/01/21 06:08:06;;;;;;;140.30;52.50;;;;;;;;;;5044607;28;20485;-86
2023/01/21 06:10:31;;;;;;;153.15;61.95;;;;;;;;;;5045693;28;20498;-86
2023/01/21 06:12:57;;;;;;;141.52;57.58;;;;;;;-1.99;100.00;66561.13;5044875;28;20124;-85
2023/01/21 06:15:24;;;;;;;150.55;56.17;;;;;;;-1.96;100.00;66564.50;5044019;28;20288;-86
2023/01/21 06:17:50;;;;;;;156.25;58.83;;;;;;;-1.93;100.00;66570.47;5046367;28;20124;-86
2023/01/21 06:20:15;;;;;;;149.13;56.72;;;;;;;-1.90;100.00;66571.22;5046178;28;20198;-86
2023/01/21 06:22:41;;;;;;;148.48;58.78;;;;;;;-1.91;100.00;66570.13;5047724;28;20045;-86
2023/01/21 06:25:06;;;;;;;146.82;60.92;;;;;;;-1.91;100.00;66573.28;5048731;28;20065;-86
2023/01/21 06:27:33;;;;;;;150.07;61.95;;;;;;;-1.89;100.00;66572.38;5032797;28;20049;-86
2023/01/21 06:29:58;;;;;;;149.40;60.80;;;;;;;-1.84;100.00;66580.59;5027103;28;20050;-86
2023/01/21 06:32:23;;;;;;;146.52;59.28;;;;;;;-1.82;100.00;66580.22;5026808;28;20041;-87
2023/01/21 06:34:49;;;;;;;154.30;60.33;;;;;;;-1.83;100.00;66582.25;5026414;28;20117;-87
2023/01/21 06:37:14;;;;;;;137.38;48.75;;;;;;;-1.80;100.00;66584.50;5042550;28;20037;-86
2023/01/21 06:39:40;;;;;;;133.00;49.63;;;;;;;-1.75;100.00;66587.53;5024354;28;20088;-86
2023/01/21 06:42:05;;;;;;;153.25;55.75;;;;;;;;;;5039387;28;20037;-86
2023/01/21 06:44:30;;;;;;;137.68;60.15;;;;;;;-1.74;100.00;66591.81;5035058;28;20097;-85
2023/01/21 06:46:56;;;;;;;146.75;58.30;;;;;;;;;;5025560;28;20037;-86
2023/01/21 06:49:21;;;;;;;139.80;58.25;;;;;;;;;;5027300;28;20454;-85
2023/01/21 06:51:46;;;;;;;149.32;60.58;;;;;;;;;;5025051;28;20061;-86
2023/01/21 06:54:11;;;;;;;136.40;54.13;;;;;;;-1.71;100.00;66595.16;5028038;28;20040;-85
2023/01/21 06:56:37;;;;;;;137.82;59.33;;;;;;;-1.68;100.00;66597.97;5027272;28;20059;-86
2023/01/21 06:59:03;;;;;;;135.48;57.83;;;;;;;-1.68;100.00;66598.53;5026096;28;20107;-86
2023/01/21 07:01:29;;;;;;;135.75;57.40;;;;;;;-1.67;100.00;66597.06;5046628;28;20040;-86
2023/01/21 07:03:54;;;;;;;129.13;57.72;;;;;;;;;;5028449;28;20033;-87
2023/01/21 07:06:21;;;;;;;138.20;55.53;;;;;;;-1.66;100.00;66603.41;5027766;28;20059;-86
2023/01/21 07:08:47;;;;;;;139.60;58.35;;;;;;;-1.64;100.00;66599.84;5027100;28;20042;-87
2023/01/21 07:11:15;;;;;;;133.13;57.75;;;;;;;-1.60;100.00;66604.91;5060092;28;20049;-86
2023/01/21 07:13:40;;;;;;;134.27;56.03;;;;;;;-1.60;100.00;66604.91;5024494;28;20500;-86
2023/01/21 07:16:06;;;;;;;131.05;51.83;;;;;;;-1.54;100.00;66610.53;5043562;28;20080;-85
2023/01/21 07:18:32;;;;;;;127.93;56.17;;;;;;;-1.54;100.00;66610.53;5046813;28;20567;-86
2023/01/21 07:20:57;;;;;;;134.52;56.97;;;;;;;-1.50;100.00;66615.00;5027610;28;20045;-87
2023/01/21 07:23:23;;;;;;;119.32;54.00;;;;;;;;;;5048327;28;20468;-86
2023/01/21 07:25:48;;;;;;;122.70;55.35;;;;;;;-1.46;100.00;66620.06;5042343;28;20048;-85
2023/01/21 07:28:14;;;;;;;105.55;47.45;;;;;;;-1.40;100.00;66626.25;5046586;28;20132;-86
2023/01/21 07:30:39;;;;;;;107.80;52.08;;;;;;;-1.38;100.00;66628.50;5046281;28;20136;-86
2023/01/21 07:33:06;;;;;;;107.68;43.83;;;;;;;-1.33;100.00;66636.16;5035902;28;20134;-85
2023/01/21 07:35:34;;;;;;;97.85;42.03;;;;;;;;;;5024335;28;20049;-85
2023/01/21 07:38:00;;;;;;;103.85;43.85;;;;;;;-1.29;100.00;66638.03;5022802;28;20099;-86
2023/01/21 07:40:25;;;;;;;102.25;45.20;;;;;;;-1.27;100.00;66640.84;5028195;28;20041;-86
2023/01/21 07:42:51;;;;;;;100.28;44.88;;;;;;;;;;5031701;28;20052;-85
2023/01/21 07:45:17;;;;;;;90.68;41.50;;;;;;;-1.23;100.00;66647.38;5024105;28;20412;-86
2023/01/21 07:47:42;;;;;;;89.43;39.60;;;;;;;-1.21;100.00;66650.19;5024892;28;20041;-89
2023/01/21 07:50:08;;;;;;;96.55;40.50;;;;;;;-1.18;100.00;66650.97;5024991;28;20058;-86
2023/01/21 07:52:33;;;;;;;89.95;41.15;;;;;;;-1.14;100.00;66657.50;5026083;28;20037;-87
2023/01/21 07:55:00;;;;;;;90.70;43.55;;;;;;;-1.16;100.00;66652.63;5045968;28;20037;-87
2023/01/21 07:57:26;;;;;;;85.57;35.95;;;;;;;-1.15;100.00;66656.94;5050338;28;20037;-88
2023/01/21 07:59:51;;;;;;;90.22;43.22;;;;;;;-1.10;100.00;66661.41;5048063;28;20037;-86
2023/01/21 08:02:17;;;;;;;86.03;44.97;;;;;;;-1.10;100.00;66661.41;5031514;28;20494;-87
2023/01/21 08:04:48;;;;;;;84.40;45.20;;;;;;;-1.09;100.00;66662.53;5028602;28;20384;-86
2023/01/21 08:07:14;;;;;;;83.88;44.60;;;;;;;-1.06;100.00;66663.88;5054014;28;20049;-87
2023/01/21 08:09:44;;;;;;;81.90;42.15;;;;;;;-1.03;100.00;66671.91;5048691;28;20059;-87
2023/01/21 08:12:20;;;;;;;72.38;38.15;;;;;;;-0.99;100.00;66671.16;5032958;28;20042;-86
2023/01/21 08:14:46;;;;;;;66.97;32.40;;;;;;;-0.94;100.00;66679.41;5037349;28;20041;-86
2023/01/21 08:17:11;;;;;;;70.47;32.42;;;;;;;-0.93;100.00;66678.47;5027719;28;20048;-87
2023/01/21 08:20:06;;;;;;;63.28;26.98;;;;;;;-0.91;100.00;66680.72;5034283;28;20112;-86
2023/01/21 08:22:31;;;;;;;64.13;31.50;;;;;;;-0.87;100.00;66686.69;5018016;28;20045;-87
2023/01/21 08:25:14;;;;;;;67.10;32.42;;;;;;;-0.84;100.00;66690.06;5042320;28;22108;-86
2023/01/21 08:27:43;;;;;;;62.17;34.20;;;;;;;-0.80;100.00;66694.56;5025454;28;20067;-87
2023/01/21 08:30:12;;;;;;;66.40;34.90;;;;;;;-0.79;100.00;66693.63;5019618;28;20053;-86
2023/01/21 08:32:37;;;;;;;68.72;32.78;;;;;;;-0.74;100.00;66698.69;5030222;28;20877;-86
2023/01/21 08:35:27;;;;;;;63.70;32.58;;;;;;;-0.75;100.00;66698.13;5000117;28;20045;-87
2023/01/21 08:44:37;;;;;;;59.72;33.15;;;;;;;-0.70;100.00;66705.78;5034159;23;20108;-84
2023/01/21 08:47:02;;;;;;;65.63;35.15;;;;;;;;;;5006633;28;20054;-84
2023/01/21 08:49:27;;;;;;;62.20;33.65;;;;;;;-0.62;100.00;66711.63;5007475;28;20516;-85
2023/01/21 08:51:52;;;;;;;65.97;35.05;;;;;;;;;;4990012;28;20038;-84
2023/01/21 08:54:18;;;;;;;65.57;36.88;;;;;;;-0.62;100.00;66712.19;5009385;28;20049;-84
2023/01/21 08:56:43;;;;;;;71.97;38.38;;;;;;;-0.61;100.00;66712.72;5006932;28;20033;-84
2023/01/21 08:59:09;;;;;;;70.32;40.08;;;;;;;;;;5005332;28;20038;-84
2023/01/21 09:01:39;;;;;;;75.40;39.95;;;;;;;-0.66;100.00;66707.13;4990558;28;20136;-85
2023/01/21 09:04:05;;;;;;;74.53;39.95;;;;;;;-0.68;100.00;66706.00;5006291;28;20038;-84
2023/01/21 09:06:30;;;;;;;83.47;42.53;;;;;;;;;;5007426;28;20520;-86
2023/01/21 09:08:55;;;;;;;81.25;45.45;;;;;;;;;;5008737;28;20475;-85
2023/01/21 09:11:21;;;;;;;80.10;42.55;;;;;;;;;;5008412;28;20049;-86
2023/01/21 09:13:46;;;;;;;82.32;43.35;;;;;;;-0.74;100.00;66698.69;5008005;28;20509;-86
2023/01/21 09:16:18;;;;;;;83.70;46.25;;;;;;;-0.73;100.00;66702.97;5005267;28;20052;-86
2023/01/21 09:18:44;;;;;;;84.95;45.50;;;;;;;-0.68;100.00;66708.59;4985661;28;20120;-86
2023/01/21 09:21:10;;;;;;;87.03;44.67;;;;;;;-0.66;100.00;66710.31;5002683;28;20183;-86
2023/01/21 09:23:37;;;;;;;83.55;47.22;;;;;;;-0.64;100.00;66709.38;5004685;28;20132;-86
2023/01/21 09:26:06;;;;;;;85.38;45.30;;;;;;;-0.61;100.00;66713.28;4986616;28;20054;-86
2023/01/21 09:28:36;;;;;;;86.07;45.83;;;;;;;-0.59;100.00;66715.53;5004804;28;20051;-86
2023/01/21 09:31:05;;;;;;;85.13;44.22;;;;;;;-0.59;100.00;66715.00;5001924;28;20084;-85
2023/01/21 09:33:34;;;;;;;84.18;43.95;;;;;;;-0.56;100.00;66718.91;5006049;28;20054;-85
2023/01/21 09:36:02;;;;;;;79.55;42.63;;;;;;;-0.53;100.00;66721.72;4983474;28;20042;-86
2023/01/21 09:38:28;;;;;;;79.07;45.33;;;;;;;-0.51;100.00;66723.97;4984953;28;20485;-85
2023/01/21 09:40:55;;;;;;;83.93;46.22;;;;;;;;;;4986065;28;20049;-85
2023/01/21 09:43:26;;;;;;;79.10;47.42;;;;;;;;;;4985973;28;20057;-86
2023/01/21 09:45:54;;;;;;;77.38;46.15;;;;;;;;;;5004621;28;20046;-85
2023/01/21 09:48:34;;;;;;;79.75;44.47;;;;;;;-0.29;100.00;66748.72;5008783;28;20042;-86
2023/01/21 09:51:06;;;;;;;70.53;41.15;;;;;;;-0.29;100.00;66748.13;5002070;28;20058;-85
2023/01/21 09:53:36;;;;;;;73.13;40.55;;;;;;;;;;4990659;28;20054;-85
2023/01/21 09:56:09;;;;;;;70.22;38.65;;;;;;;-0.26;100.00;66746.28;5006741;28;20077;-85
2023/01/21 09:58:38;;;;;;;69.53;39.28;;;;;;;;;;4992708;28;20033;-85
2023/01/21 10:01:23;;;;;;;66.82;37.20;;;;;;;-0.18;100.00;66760.50;5009547;28;20048;-86
2023/01/21 10:04:01;;;;;;;67.90;34.63;;;;;;;;;;4993825;28;20128;-84
2023/01/21 10:06:29;;;;;;;65.63;36.60;;;;;;;;;;5011485;28;20504;-84
2023/01/21 10:09:24;;;;;;;63.13;34.95;;;;;;;-0.09;100.00;66772.66;5012297;28;20128;-85
2023/01/21 10:12:08;;;;;;;63.92;36.63;;;;;;;;;;4983851;28;20532;-84
2023/01/21 10:14:45;;;;;;;66.53;38.15;;;;;;;-0.04;100.00;66775.69;4993146;28;20054;-84
2023/01/21 10:17:26;;;;;;;69.00;39.20;;;;;;;-0.03;100.00;66776.78;5009932;28;20045;-86
2023/01/21 10:20:04;;;;;;;63.92;36.33;;;;;;;0.02;100.00;66782.44;5010667;28;20189;-84
2023/01/21 10:22:29;;;;;;;59.05;34.55;;;;;;;0.02;100.00;66782.44;5012944;28;20044;-84
2023/01/21 10:25:00;;;;;;;62.67;33.13;;;;;;;0.09;100.00;66792.91;5011136;28;20412;-84
2023/01/21 10:27:28;;;;;;;59.30;35.05;;;;;;;0.12;100.00;66793.69;5012816;28;20050;-84
2023/01/21 10:29:56;;;;;;;61.88;35.00;;;;;;;;;;5012248;28;20065;-85
2023/01/21 10:32:25;;;;;;;63.83;36.33;;;;;;;;;;5011690;28;20076;-85
2023/01/21 10:34:52;;;;;;;62.20;36.25;;;;;;;;;;5008918;28;20667;-84
2023/01/21 10:37:32;;;;;;;85.57;52.03;;;;;;;0.28;100.00;66811.09;5006549;28;20096;-83
2023/01/21 10:40:16;;;;;;;81.43;45.42;;;;;;;0.24;100.00;66806.03;5008296;28;20042;-84
2023/01/21 10:43:09;;;;;;;66.05;38.45;;;;;;;0.27;100.00;66809.97;5007987;28;20096;-83
2023/01/21 10:45:56;;;;;;;78.63;44.28;;;;;;;0.28;100.00;66810.53;4987778;28;20047;-83
2023/01/21 10:48:44;;;;;;;76.90;48.75;;;;;;;0.32;100.00;66815.59;4999135;28;20064;-83
2023/01/21 10:51:23;;;;;;;66.05;38.50;;;;;;;0.45;100.00;66829.66;5007289;28;20119;-83
2023/01/21 10:53:51;;;;;;;62.38;37.13;;;;;;;0.50;100.00;66834.72;5007024;28;20053;-85
2023/01/21 10:56:45;;;;;;;63.55;35.83;;;;;;;0.45;100.00;66829.66;5007622;28;20434;-84
2023/01/21 10:59:16;;;;;;;63.85;36.88;;;;;;;0.49;100.00;66833.59;5009153;28;20050;-84
2023/01/21 11:01:46;;;;;;;56.67;33.42;;;;;;;0.48;100.00;66833.03;4991830;28;20045;-83
2023/01/21 11:04:20;;;;;;;62.80;35.00;;;;;;;0.52;100.00;66837.53;4989748;28;20049;-84
2023/01/21 11:06:55;;;;;;;59.75;34.90;;;;;;;0.55;100.00;66840.91;5008139;28;20046;-83
2023/01/21 11:09:25;;;;;;;56.67;33.10;;;;;;;0.57;100.00;66837.34;5013437;28;20038;-84
2023/01/21 11:11:50;;;;;;;56.55;34.83;;;;;;;;;;5008059;28;20096;-82
2023/01/21 11:14:15;;;;;;;61.38;36.47;;;;;;;0.62;100.00;66848.78;5007572;28;20634;-83
2023/01/21 11:16:48;;;;;;;60.55;33.25;;;;;;;0.61;100.00;66847.66;5008537;28;20509;-85
2023/01/21 11:19:20;;;;;;;58.28;33.47;;;;;;;0.60;100.00;66841.28;4987619;28;20054;-83
2023/01/21 11:22:18;;;;;;;55.35;31.80;;;;;;;0.63;100.00;66849.91;4988911;28;20038;-83
2023/01/21 11:24:46;;;;;;;60.30;33.27;;;;;;;0.62;100.00;66848.78;4985412;28;20683;-83
2023/01/21 11:27:20;;;;;;;57.50;33.33;;;;;;;;;;4987003;28;20281;-84
2023/01/21 11:29:47;;;;;;;56.20;32.47;;;;;;;0.71;100.00;66860.41;4988043;28;20046;-84
2023/01/21 11:32:24;;;;;;;54.72;33.97;;;;;;;0.73;100.00;66863.22;4984108;28;20498;-83
2023/01/21 11:34:58;;;;;;;55.85;33.90;;;;;;;0.77;100.00;66865.09;4986752;28;20050;-84
2023/01/21 11:37:28;;;;;;;60.03;34.92;;;;;;;0.81;100.00;66864.38;4983584;28;20046;-83
2023/01/21 11:39:57;;;;;;;59.17;34.42;;;;;;;;;;4988790;28;20089;-84
2023/01/21 11:42:23;;;;;;;103.40;61.15;;;;;;;0.75;100.00;66862.84;4983440;28;20053;-84
2023/01/21 11:45:00;;;;;;;193.38;92.35;;;;;;;;;;4988005;28;20042;-84
2023/01/21 11:47:39;;;;;;;80.97;39.88;;;;;;;;;;4988513;28;20565;-84
2023/01/21 11:50:11;;;;;;;74.82;40.40;;;;;;;;;;4987215;28;20133;-83
2023/01/21 11:52:37;;;;;;;61.58;38.83;;;;;;;0.80;100.00;66870.53;4984922;28;20561;-83